Station Historical Data
Daily Summary for November 13, 2017 Units:  English    Metric   Both
« Previous Day
Next Day »
Daily Weekly Monthly Yearly Custom
  High: Low: Average:
Temperature: 40.9 °F 33.3 °F 37.4 °F
Dew Point: 35.9 °F 29.8 °F 33.7 °F
Humidity: 91% 81% 87%
Wind Speed: 4.0mph 0.0mph 0.3mph
Wind Gust: 7.0mph - -
Wind- - West
Pressure: 30.40 in 30.33 in -
Precipitation: 0.00 in    
Historical Graphs
 
 
Tabular Data for November 13, 2017
Time Temperature Dew Point Pressure Wind Wind Speed Wind Gust Humidity Rainfall Rate (Hourly)
00:04 35.7 °F 30.4 °F 30.35 in Calm     81% 0.01 in
00:09 35.5 °F 30.2 °F 30.35 in Calm     81% 0.01 in
00:14 35.3 °F 30.4 °F 30.35 in Calm     82% 0.01 in
00:19 35.2 °F 30.3 °F 30.35 in Calm     82% 0.01 in
00:24 35.2 °F 30.6 °F 30.35 in Calm     83% 0.01 in
00:29 35.1 °F 30.5 °F 30.35 in Calm     83% 0.02 in
00:34 35.1 °F 30.5 °F 30.35 in Calm     83% 0.01 in
00:39 35.1 °F 30.8 °F 30.35 in Calm     84% 0.01 in
00:44 35.0 °F 30.7 °F 30.35 in NE 2.0 mph 3.0 mph 84% 0.01 in
00:49 34.8 °F 30.5 °F 30.34 in NE 1.0 mph 4.0 mph 84% 0.01 in
00:54 34.7 °F 30.4 °F 30.34 in NE 1.0 mph 4.0 mph 84% 0.01 in
00:59 34.6 °F 30.0 °F 30.34 in Calm   3.0 mph 83% 0.01 in
01:04 34.6 °F 30.0 °F 30.34 in ENE 2.0 mph 2.0 mph 83% 0.01 in
01:09 34.6 °F 30.0 °F 30.34 in Calm   3.0 mph 83% 0.01 in
01:14 34.5 °F 30.2 °F 30.34 in Calm     84% 0.01 in
01:19 34.5 °F 30.2 °F 30.34 in Calm     84% 0.01 in
01:24 34.3 °F 30.0 °F 30.34 in Calm     84% 0.01 in
01:29 34.2 °F 29.9 °F 30.34 in Calm     84% 0.00 in
01:34 34.1 °F 30.1 °F 30.34 in Calm     85% 0.01 in
01:39 34.0 °F 30.0 °F 30.34 in Calm     85% 0.01 in
01:44 33.9 °F 29.9 °F 30.34 in Calm     85% 0.01 in
01:49 33.9 °F 29.9 °F 30.34 in Calm     85% 0.01 in
01:54 33.8 °F 30.1 °F 30.33 in Calm     86% 0.01 in
01:59 33.8 °F 30.1 °F 30.34 in Calm     86% 0.01 in
02:04 33.7 °F 30.0 °F 30.34 in Calm     86% 0.01 in
02:09 33.7 °F 30.0 °F 30.34 in Calm     86% 0.01 in
02:14 33.5 °F 29.8 °F 30.33 in Calm     86% 0.01 in
02:19 33.5 °F 29.8 °F 30.33 in Calm     86% 0.02 in
02:24 33.5 °F 30.0 °F 30.33 in Calm     87% 0.02 in
02:29 33.4 °F 29.9 °F 30.34 in Calm     87% 0.02 in
02:34 33.4 °F 29.9 °F 30.33 in Calm     87% 0.01 in
02:39 33.4 °F 29.9 °F 30.34 in Calm   3.0 mph 87% 0.02 in
02:44 33.4 °F 29.9 °F 30.34 in Calm   1.0 mph 87% 0.02 in
02:49 33.3 °F 29.8 °F 30.34 in Calm   1.0 mph 87% 0.02 in
02:54 33.3 °F 30.1 °F 30.34 in Calm     88% 0.03 in
02:59 33.3 °F 30.1 °F 30.33 in Calm     88% 0.03 in
03:04 33.3 °F 30.1 °F 30.33 in Calm     88% 0.04 in
03:09 33.3 °F 30.1 °F 30.33 in Calm     88% 0.04 in
03:14 33.3 °F 30.1 °F 30.33 in Calm     88% 0.04 in
03:19 33.4 °F 30.2 °F 30.33 in Calm     88% 0.04 in
03:24 33.4 °F 30.5 °F 30.33 in Calm     89% 0.04 in
03:29 33.4 °F 30.5 °F 30.33 in Calm     89% 0.04 in
03:34 33.3 °F 30.4 °F 30.33 in Calm     89% 0.05 in
03:39 33.4 °F 30.5 °F 30.33 in Calm     89% 0.04 in
03:44 33.3 °F 30.4 °F 30.33 in Calm   1.0 mph 89% 0.04 in
03:49 33.4 °F 30.5 °F 30.33 in Calm     89% 0.04 in
03:54 33.5 °F 30.6 °F 30.33 in Calm     89% 0.03 in
03:59 33.5 °F 30.6 °F 30.33 in ENE 1.0 mph 3.0 mph 89% 0.03 in
04:04 33.5 °F 30.9 °F 30.33 in Calm   2.0 mph 90% 0.02 in
04:09 33.6 °F 31.0 °F 30.33 in ENE 2.0 mph 2.0 mph 90% 0.03 in
04:14 33.7 °F 31.1 °F 30.33 in Calm   3.0 mph 90% 0.03 in
04:19 33.7 °F 31.1 °F 30.33 in Calm     90% 0.02 in
04:24 33.8 °F 31.2 °F 30.33 in Calm     90% 0.02 in
04:29 33.8 °F 31.2 °F 30.33 in Calm     90% 0.02 in
04:34 33.8 °F 31.2 °F 30.33 in Calm     90% 0.01 in
04:39 33.9 °F 31.3 °F 30.33 in Calm     90% 0.01 in
04:44 33.9 °F 31.3 °F 30.33 in Calm     90% 0.01 in
04:49 33.9 °F 31.3 °F 30.33 in Calm   2.0 mph 90% 0.01 in
04:54 34.0 °F 31.4 °F 30.33 in Calm   3.0 mph 90% 0.02 in
04:59 34.0 °F 31.4 °F 30.33 in Calm   3.0 mph 90% 0.02 in
05:04 34.0 °F 31.4 °F 30.33 in Calm   2.0 mph 90% 0.02 in
05:09 34.1 °F 31.5 °F 30.33 in Calm     90% 0.01 in
05:14 34.0 °F 31.4 °F 30.33 in Calm     90% 0.01 in
05:19 34.1 °F 31.5 °F 30.33 in ENE 1.0 mph 2.0 mph 90% 0.01 in
05:24 34.2 °F 31.6 °F 30.33 in Calm   2.0 mph 90% 0.01 in
05:29 34.3 °F 31.7 °F 30.33 in Calm   2.0 mph 90% 0.01 in
05:34 34.3 °F 31.7 °F 30.33 in Calm     90% 0.01 in
05:39 34.3 °F 31.7 °F 30.33 in Calm     90% 0.01 in
05:44 34.4 °F 31.8 °F 30.34 in Calm     90% 0.02 in
05:49 34.4 °F 31.8 °F 30.34 in Calm     90% 0.02 in
05:54 34.4 °F 31.8 °F 30.34 in Calm     90% 0.01 in
05:59 34.5 °F 31.9 °F 30.34 in Calm     90% 0.01 in
06:04 34.5 °F 31.9 °F 30.34 in Calm     90% 0.01 in
06:09 34.6 °F 32.0 °F 30.34 in Calm     90% 0.01 in
06:14 34.6 °F 32.0 °F 30.34 in Calm     90% 0.01 in
06:19 34.6 °F 32.0 °F 30.34 in Calm     90% 0.01 in
06:24 34.5 °F 31.9 °F 30.34 in Calm     90% 0.01 in
06:29 34.6 °F 32.0 °F 30.34 in Calm     90% 0.01 in
06:34 34.7 °F 32.1 °F 30.34 in Calm     90% 0.02 in
06:39 34.8 °F 32.2 °F 30.34 in Calm     90% 0.02 in
06:44 34.8 °F 32.2 °F 30.34 in Calm     90% 0.01 in
06:49 34.8 °F 32.2 °F 30.34 in Calm     90% 0.01 in
06:54 34.8 °F 32.2 °F 30.35 in Calm     90% 0.01 in
06:59 34.8 °F 32.2 °F 30.35 in Calm     90% 0.01 in
07:04 34.7 °F 32.1 °F 30.35 in Calm     90% 0.01 in
07:09 34.7 °F 32.1 °F 30.35 in Calm     90% 0.01 in
07:14 34.7 °F 32.1 °F 30.35 in Calm     90% 0.01 in
07:19 34.8 °F 32.2 °F 30.35 in Calm     90% 0.01 in
07:24 34.7 °F 32.1 °F 30.35 in Calm     90% 0.01 in
07:29 34.8 °F 32.2 °F 30.35 in Calm     90% 0.01 in
07:34 34.9 °F 32.3 °F 30.35 in Calm     90% 0.00 in
07:39 34.8 °F 32.2 °F 30.35 in Calm   3.0 mph 90% 0.00 in
07:44 34.8 °F 32.2 °F 30.35 in Calm   3.0 mph 90% 0.00 in
07:49 34.7 °F 32.3 °F 30.35 in Calm     91% 0.00 in
07:54 34.8 °F 32.4 °F 30.35 in Calm     91% 0.00 in
07:59 34.8 °F 32.4 °F 30.35 in Calm     91% 0.00 in
08:04 34.8 °F 32.4 °F 30.36 in Calm     91% 0.00 in
08:09 34.9 °F 32.5 °F 30.36 in Calm     91% 0.00 in
08:14 35.0 °F 32.6 °F 30.37 in Calm     91% 0.00 in
08:19 35.1 °F 32.7 °F 30.37 in Calm     91% 0.00 in
08:24 35.2 °F 32.8 °F 30.37 in Calm     91% 0.00 in
08:29 35.2 °F 32.6 °F 30.37 in Calm     90% 0.00 in
08:34 35.4 °F 33.0 °F 30.37 in Calm     91% 0.00 in
08:39 35.7 °F 33.3 °F 30.37 in Calm     91% 0.00 in
08:44 36.1 °F 33.7 °F 30.37 in Calm     91% 0.00 in
08:49 35.9 °F 33.5 °F 30.37 in Calm     91% 0.00 in
08:54 36.1 °F 33.7 °F 30.37 in Calm     91% 0.00 in
08:59 36.1 °F 33.5 °F 30.37 in Calm     90% 0.00 in
09:04 36.2 °F 33.5 °F 30.37 in Calm     90% 0.00 in
09:14 36.7 °F 34.0 °F 30.38 in NW 1.0 mph 1.0 mph 90% 0.00 in
09:19 36.8 °F 34.1 °F 30.37 in Calm   3.0 mph 90% 0.00 in
09:24 37.2 °F 34.5 °F 30.37 in West 1.0 mph 3.0 mph 90% 0.00 in
09:29 37.3 °F 34.6 °F 30.37 in Calm   3.0 mph 90% 0.00 in
09:34 37.2 °F 34.3 °F 30.37 in NW 2.0 mph 3.0 mph 89% 0.00 in
09:39 37.1 °F 34.2 °F 30.37 in NW 1.0 mph 3.0 mph 89% 0.00 in
09:44 37.2 °F 34.3 °F 30.37 in Calm     89% 0.00 in
09:45 37.2 °F 34.3 °F 30.37 in Calm   2.0 mph 89% 0.00 in
09:54 37.5 °F 34.3 °F 30.37 in Calm   3.0 mph 88% 0.00 in
09:59 37.7 °F 34.8 °F 30.38 in Calm   3.0 mph 89% 0.00 in
10:04 37.9 °F 34.7 °F 30.38 in NW 1.0 mph 2.0 mph 88% 0.00 in
10:09 38.1 °F 34.9 °F 30.38 in Calm   2.0 mph 88% 0.00 in
10:14 38.1 °F 34.9 °F 30.38 in Calm     88% 0.00 in
10:19 38.2 °F 35.0 °F 30.38 in Calm     88% 0.00 in
10:24 38.0 °F 34.5 °F 30.38 in Calm   3.0 mph 87% 0.00 in
10:29 38.2 °F 34.7 °F 30.38 in NW 2.0 mph 4.0 mph 87% 0.00 in
10:34 38.3 °F 34.8 °F 30.39 in NW 1.0 mph 6.0 mph 87% 0.00 in
10:39 38.1 °F 34.6 °F 30.39 in NW 2.0 mph 6.0 mph 87% 0.00 in
10:44 38.0 °F 34.5 °F 30.39 in NW 2.0 mph 6.0 mph 87% 0.00 in
10:49 38.3 °F 34.8 °F 30.39 in NW 1.0 mph 4.0 mph 87% 0.00 in
10:54 38.4 °F 34.6 °F 30.39 in NW 1.0 mph 4.0 mph 86% 0.00 in
10:59 38.7 °F 34.9 °F 30.39 in NW 1.0 mph 4.0 mph 86% 0.00 in
11:04 38.6 °F 34.5 °F 30.39 in NW 1.0 mph 4.0 mph 85% 0.00 in
11:09 38.6 °F 34.5 °F 30.39 in Calm   3.0 mph 85% 0.00 in
11:14 38.9 °F 34.8 °F 30.38 in Calm   3.0 mph 85% 0.00 in
11:19 39.2 °F 34.8 °F 30.38 in Calm   2.0 mph 84% 0.00 in
11:24 39.2 °F 34.8 °F 30.38 in Calm   3.0 mph 84% 0.00 in
11:29 39.5 °F 35.1 °F 30.38 in Calm   2.0 mph 84% 0.00 in
11:34 39.6 °F 35.2 °F 30.38 in Calm   3.0 mph 84% 0.00 in
11:39 39.6 °F 35.2 °F 30.38 in Calm   5.0 mph 84% 0.00 in
11:44 39.6 °F 35.2 °F 30.38 in WNW 1.0 mph 5.0 mph 84% 0.00 in
11:49 39.7 °F 35.0 °F 30.38 in NNW 1.0 mph 3.0 mph 83% 0.00 in
11:54 40.1 °F 35.7 °F 30.38 in NW 1.0 mph 4.0 mph 84% 0.00 in
11:59 40.2 °F 35.4 °F 30.38 in WNW 1.0 mph 4.0 mph 83% 0.00 in
12:04 40.3 °F 35.5 °F 30.38 in WNW 2.0 mph 4.0 mph 83% 0.00 in
12:09 40.3 °F 35.5 °F 30.38 in Calm   3.0 mph 83% 0.00 in
12:14 40.4 °F 35.6 °F 30.37 in WNW 1.0 mph 6.0 mph 83% 0.00 in
12:19 40.4 °F 35.3 °F 30.38 in WNW 2.0 mph 6.0 mph 82% 0.00 in
12:24 40.2 °F 35.1 °F 30.38 in North 1.0 mph 4.0 mph 82% 0.00 in
12:29 40.1 °F 35.0 °F 30.38 in West 3.0 mph 5.0 mph 82% 0.00 in
12:34 40.3 °F 35.2 °F 30.37 in North 3.0 mph 5.0 mph 82% 0.00 in
12:39 40.4 °F 35.3 °F 30.37 in Calm   4.0 mph 82% 0.00 in
12:44 40.3 °F 35.2 °F 30.37 in NW 1.0 mph 4.0 mph 82% 0.00 in
12:49 40.4 °F 35.3 °F 30.37 in NW 2.0 mph 6.0 mph 82% 0.00 in
12:54 40.3 °F 35.2 °F 30.37 in WNW 2.0 mph 6.0 mph 82% 0.00 in
12:59 40.3 °F 35.2 °F 30.37 in NNW 2.0 mph 4.0 mph 82% 0.00 in
13:04 40.4 °F 35.3 °F 30.37 in Calm   4.0 mph 82% 0.00 in
13:09 40.4 °F 35.3 °F 30.36 in Calm   5.0 mph 82% 0.00 in
13:14 40.4 °F 35.3 °F 30.36 in WNW 1.0 mph 5.0 mph 82% 0.00 in
13:19 40.6 °F 35.5 °F 30.36 in NW 1.0 mph 5.0 mph 82% 0.00 in
13:24 40.6 °F 35.5 °F 30.37 in NW 1.0 mph 5.0 mph 82% 0.00 in
13:29 40.6 °F 35.2 °F 30.36 in Calm   3.0 mph 81% 0.00 in
13:34 40.9 °F 35.8 °F 30.37 in Calm   4.0 mph 82% 0.00 in
13:39 40.8 °F 35.7 °F 30.37 in NW 1.0 mph 4.0 mph 82% 0.00 in
13:44 40.6 °F 35.2 °F 30.37 in WNW 2.0 mph 4.0 mph 81% 0.00 in
13:49 40.5 °F 35.4 °F 30.37 in WNW 2.0 mph 5.0 mph 82% 0.00 in
13:54 40.4 °F 35.3 °F 30.37 in NW 2.0 mph 5.0 mph 82% 0.00 in
13:59 40.3 °F 35.2 °F 30.37 in NW 2.0 mph 4.0 mph 82% 0.00 in
14:04 40.3 °F 35.2 °F 30.37 in Calm   4.0 mph 82% 0.00 in
14:09 40.3 °F 35.5 °F 30.37 in NNW 2.0 mph 5.0 mph 83% 0.00 in
14:14 40.2 °F 35.4 °F 30.37 in Calm   4.0 mph 83% 0.00 in
14:19 40.2 °F 35.4 °F 30.37 in NW 1.0 mph 4.0 mph 83% 0.00 in
14:24 40.2 °F 35.4 °F 30.37 in Calm   4.0 mph 83% 0.00 in
14:29 40.3 °F 35.5 °F 30.37 in Calm   5.0 mph 83% 0.00 in
14:34 40.1 °F 35.4 °F 30.38 in WNW 1.0 mph 7.0 mph 83% 0.00 in
14:39 40.0 °F 35.3 °F 30.38 in Calm   3.0 mph 83% 0.00 in
14:44 40.0 °F 35.3 °F 30.38 in Calm   4.0 mph 83% 0.00 in
14:49 40.0 °F 35.3 °F 30.38 in Calm   4.0 mph 83% 0.00 in
14:54 40.1 °F 35.4 °F 30.38 in Calm   3.0 mph 83% 0.00 in
14:59 40.0 °F 35.3 °F 30.38 in Calm   5.0 mph 83% 0.00 in
15:04 40.0 °F 35.3 °F 30.38 in WNW 1.0 mph 4.0 mph 83% 0.00 in
15:09 40.0 °F 35.3 °F 30.38 in WNW 1.0 mph 4.0 mph 83% 0.00 in
15:14 40.0 °F 35.3 °F 30.39 in NW 4.0 mph 4.0 mph 83% 0.00 in
15:19 39.9 °F 35.5 °F 30.38 in WNW 3.0 mph 6.0 mph 84% 0.00 in
15:24 39.8 °F 35.4 °F 30.38 in WNW 3.0 mph 6.0 mph 84% 0.00 in
15:29 39.7 °F 35.3 °F 30.38 in WNW 2.0 mph 5.0 mph 84% 0.00 in
15:34 39.6 °F 35.5 °F 30.38 in WNW 1.0 mph 5.0 mph 85% 0.00 in
15:39 39.6 °F 35.5 °F 30.38 in Calm   1.0 mph 85% 0.00 in
15:44 39.5 °F 35.7 °F 30.38 in WNW 2.0 mph 3.0 mph 86% 0.00 in
15:49 39.5 °F 35.7 °F 30.39 in Calm   3.0 mph 86% 0.00 in
15:54 39.4 °F 35.6 °F 30.38 in WNW 1.0 mph 3.0 mph 86% 0.00 in
15:59 39.4 °F 35.9 °F 30.39 in WNW 1.0 mph 3.0 mph 87% 0.00 in
16:04 39.4 °F 35.9 °F 30.39 in WNW 1.0 mph 3.0 mph 87% 0.00 in
16:09 39.3 °F 35.8 °F 30.39 in Calm   3.0 mph 87% 0.00 in
16:14 39.3 °F 35.8 °F 30.39 in Calm     87% 0.00 in
16:19 39.3 °F 35.8 °F 30.39 in West 1.0 mph 4.0 mph 87% 0.00 in
16:24 39.3 °F 35.8 °F 30.39 in West 1.0 mph 4.0 mph 87% 0.00 in
16:29 39.3 °F 35.8 °F 30.39 in West 1.0 mph 4.0 mph 87% 0.00 in
16:34 39.3 °F 35.8 °F 30.39 in Calm     87% 0.00 in
16:39 39.3 °F 35.8 °F 30.39 in Calm   2.0 mph 87% 0.00 in
16:44 39.2 °F 35.7 °F 30.39 in Calm     87% 0.00 in
16:49 39.3 °F 35.8 °F 30.39 in Calm     87% 0.00 in
16:54 39.1 °F 35.6 °F 30.39 in Calm     87% 0.00 in
16:59 39.1 °F 35.3 °F 30.39 in Calm     86% 0.00 in
17:04 39.0 °F 35.2 °F 30.39 in Calm     86% 0.00 in
17:09 39.1 °F 35.6 °F 30.39 in Calm     87% 0.00 in
17:14 39.1 °F 35.3 °F 30.39 in Calm     86% 0.00 in
17:19 39.2 °F 35.4 °F 30.40 in Calm   2.0 mph 86% 0.00 in
17:24 39.1 °F 35.3 °F 30.40 in Calm   2.0 mph 86% 0.00 in
17:29 39.2 °F 35.4 °F 30.40 in Calm   2.0 mph 86% 0.00 in
17:34 39.3 °F 35.5 °F 30.40 in Calm     86% 0.00 in
17:39 39.3 °F 35.5 °F 30.40 in Calm     86% 0.00 in
17:44 39.4 °F 35.6 °F 30.40 in Calm     86% 0.00 in
17:49 39.3 °F 35.5 °F 30.40 in Calm     86% 0.00 in
17:54 39.4 °F 35.6 °F 30.40 in Calm     86% 0.00 in
17:59 39.4 °F 35.6 °F 30.40 in Calm     86% 0.00 in
18:04 39.3 °F 35.5 °F 30.40 in Calm     86% 0.00 in
18:09 39.3 °F 35.5 °F 30.40 in Calm   3.0 mph 86% 0.00 in
18:14 39.3 °F 35.5 °F 30.40 in West 1.0 mph 3.0 mph 86% 0.00 in
18:19 39.4 °F 35.6 °F 30.40 in Calm   4.0 mph 86% 0.00 in
18:24 39.4 °F 35.6 °F 30.40 in Calm     86% 0.00 in
18:29 39.4 °F 35.6 °F 30.40 in Calm     86% 0.00 in
18:34 39.4 °F 35.6 °F 30.39 in Calm     86% 0.00 in
18:39 39.3 °F 35.5 °F 30.39 in Calm     86% 0.00 in
18:44 39.3 °F 35.5 °F 30.39 in Calm     86% 0.00 in
18:49 39.3 °F 35.5 °F 30.39 in Calm     86% 0.00 in
18:54 39.3 °F 35.5 °F 30.39 in Calm     86% 0.00 in
18:59 39.2 °F 35.4 °F 30.39 in Calm     86% 0.00 in
19:04 39.2 °F 35.4 °F 30.39 in Calm     86% 0.00 in
19:09 39.2 °F 35.4 °F 30.39 in Calm     86% 0.00 in
19:14 39.2 °F 35.4 °F 30.39 in Calm     86% 0.00 in
19:19 39.2 °F 35.4 °F 30.39 in Calm     86% 0.00 in
19:24 39.2 °F 35.4 °F 30.39 in Calm     86% 0.00 in
19:29 39.1 °F 35.6 °F 30.39 in Calm     87% 0.00 in
19:34 39.1 °F 35.6 °F 30.39 in Calm     87% 0.00 in
19:39 39.1 °F 35.6 °F 30.39 in Calm     87% 0.00 in
19:44 39.1 °F 35.6 °F 30.39 in Calm     87% 0.00 in
19:49 39.1 °F 35.6 °F 30.39 in Calm     87% 0.00 in
19:54 39.1 °F 35.6 °F 30.40 in Calm     87% 0.00 in
19:59 39.2 °F 35.7 °F 30.40 in Calm     87% 0.00 in
20:04 39.1 °F 35.6 °F 30.40 in Calm     87% 0.00 in
20:09 39.1 °F 35.6 °F 30.40 in Calm     87% 0.00 in
20:14 39.1 °F 35.6 °F 30.40 in Calm     87% 0.00 in
20:19 39.2 °F 35.7 °F 30.40 in Calm     87% 0.00 in
20:24 39.2 °F 35.7 °F 30.40 in Calm     87% 0.00 in
20:29 39.2 °F 35.4 °F 30.40 in Calm     86% 0.00 in
20:34 39.2 °F 35.4 °F 30.40 in Calm     86% 0.00 in
20:39 39.3 °F 35.5 °F 30.40 in Calm     86% 0.00 in
20:44 39.3 °F 35.5 °F 30.40 in Calm     86% 0.00 in
20:49 39.3 °F 35.5 °F 30.39 in Calm     86% 0.00 in
20:54 39.3 °F 35.5 °F 30.40 in WSW 1.0 mph 2.0 mph 86% 0.00 in
20:59 39.3 °F 35.5 °F 30.40 in WSW 2.0 mph 2.0 mph 86% 0.00 in
21:04 39.2 °F 35.4 °F 30.40 in WSW 2.0 mph 2.0 mph 86% 0.00 in
21:09 39.3 °F 35.2 °F 30.40 in West 1.0 mph 3.0 mph 85% 0.00 in
21:14 39.3 °F 35.2 °F 30.39 in West 1.0 mph 3.0 mph 85% 0.00 in
21:19 39.3 °F 35.2 °F 30.39 in Calm   3.0 mph 85% 0.00 in
21:24 39.4 °F 35.3 °F 30.39 in Calm     85% 0.00 in
21:29 39.3 °F 35.2 °F 30.39 in Calm     85% 0.00 in
21:34 39.4 °F 35.3 °F 30.39 in Calm   2.0 mph 85% 0.00 in
21:39 39.4 °F 35.3 °F 30.39 in Calm   3.0 mph 85% 0.00 in
21:44 39.4 °F 35.3 °F 30.39 in Calm   3.0 mph 85% 0.00 in
21:49 39.4 °F 35.3 °F 30.39 in Calm   3.0 mph 85% 0.00 in
21:54 39.5 °F 35.4 °F 30.39 in Calm   3.0 mph 85% 0.00 in
21:59 39.4 °F 35.3 °F 30.38 in WNW 2.0 mph 5.0 mph 85% 0.00 in
22:04 39.4 °F 35.3 °F 30.38 in Calm   2.0 mph 85% 0.00 in
22:09 39.3 °F 35.2 °F 30.38 in Calm     85% 0.00 in
22:15 39.3 °F 35.2 °F 30.38 in Calm     85% 0.00 in
22:24 39.3 °F 35.2 °F 30.38 in Calm     85% 0.00 in
22:29 39.3 °F 35.2 °F 30.38 in Calm     85% 0.00 in
22:34 39.3 °F 35.2 °F 30.38 in Calm     85% 0.00 in
22:39 39.2 °F 35.1 °F 30.37 in Calm     85% 0.00 in
22:44 39.2 °F 35.1 °F 30.37 in Calm     85% 0.00 in
22:49 39.1 °F 35.0 °F 30.38 in Calm     85% 0.00 in
22:54 39.0 °F 34.9 °F 30.38 in Calm     85% 0.00 in
22:59 38.9 °F 34.8 °F 30.38 in Calm     85% 0.00 in
23:04 38.8 °F 35.0 °F 30.38 in Calm     86% 0.00 in
23:09 38.8 °F 35.0 °F 30.38 in Calm     86% 0.00 in
23:14 38.6 °F 34.8 °F 30.38 in Calm     86% 0.00 in
23:19 38.6 °F 34.8 °F 30.38 in Calm     86% 0.00 in
23:24 38.5 °F 35.0 °F 30.38 in Calm     87% 0.00 in
23:29 38.4 °F 34.9 °F 30.38 in Calm     87% 0.00 in
23:34 38.4 °F 34.9 °F 30.38 in Calm     87% 0.00 in
23:39 38.4 °F 34.9 °F 30.38 in Calm     87% 0.00 in
23:44 38.3 °F 34.8 °F 30.37 in Calm     87% 0.00 in
23:49 38.3 °F 34.8 °F 30.37 in Calm     87% 0.00 in
23:54 38.4 °F 34.9 °F 30.38 in Calm     87% 0.00 in
23:59 38.4 °F 34.9 °F 30.38 in Calm     87% 0.00 in
Buffalo, New York, USA
Compliments of Weather Underground - 2.5 mb